sensor_id;sensor_type;location;lat;lon;timestamp;P1;durP1;ratioP1;P2;durP2;ratioP2
40971;SDS011;26701;47.408;19.174;2023-03-01T00:01:53;29.92;;;14.05;;
40971;SDS011;26701;47.408;19.174;2023-03-01T00:04:18;25.80;;;14.55;;
40971;SDS011;26701;47.408;19.174;2023-03-01T00:06:44;30.48;;;15.23;;
40971;SDS011;26701;47.408;19.174;2023-03-01T00:09:12;33.25;;;15.80;;
40971;SDS011;26701;47.408;19.174;2023-03-01T00:11:40;37.83;;;18.20;;
40971;SDS011;26701;47.408;19.174;2023-03-01T00:14:06;37.63;;;16.52;;
40971;SDS011;26701;47.408;19.174;2023-03-01T00:16:39;34.95;;;16.45;;
40971;SDS011;26701;47.408;19.174;2023-03-01T00:19:07;36.90;;;16.70;;
40971;SDS011;26701;47.408;19.174;2023-03-01T00:21:37;38.30;;;17.52;;
40971;SDS011;26701;47.408;19.174;2023-03-01T00:24:03;36.58;;;17.65;;
40971;SDS011;26701;47.408;19.174;2023-03-01T00:26:29;35.55;;;17.17;;
40971;SDS011;26701;47.408;19.174;2023-03-01T00:28:56;34.58;;;15.80;;
40971;SDS011;26701;47.408;19.174;2023-03-01T00:31:23;34.17;;;17.23;;
40971;SDS011;26701;47.408;19.174;2023-03-01T00:33:53;33.97;;;16.98;;
40971;SDS011;26701;47.408;19.174;2023-03-01T00:36:22;33.88;;;16.88;;
40971;SDS011;26701;47.408;19.174;2023-03-01T00:38:49;35.13;;;17.80;;
40971;SDS011;26701;47.408;19.174;2023-03-01T00:41:16;41.17;;;18.77;;
40971;SDS011;26701;47.408;19.174;2023-03-01T00:43:43;37.45;;;18.83;;
40971;SDS011;26701;47.408;19.174;2023-03-01T00:46:14;38.05;;;18.67;;
40971;SDS011;26701;47.408;19.174;2023-03-01T00:48:42;36.42;;;16.67;;
40971;SDS011;26701;47.408;19.174;2023-03-01T00:51:09;37.08;;;17.17;;
40971;SDS011;26701;47.408;19.174;2023-03-01T00:53:35;36.83;;;17.33;;
40971;SDS011;26701;47.408;19.174;2023-03-01T00:56:02;36.65;;;18.40;;
40971;SDS011;26701;47.408;19.174;2023-03-01T00:58:29;33.55;;;16.02;;
40971;SDS011;26701;47.408;19.174;2023-03-01T01:00:55;33.42;;;16.23;;
40971;SDS011;26701;47.408;19.174;2023-03-01T01:03:21;28.65;;;15.25;;
40971;SDS011;26701;47.408;19.174;2023-03-01T01:05:50;31.95;;;16.60;;
40971;SDS011;26701;47.408;19.174;2023-03-01T01:08:16;39.50;;;17.50;;
40971;SDS011;26701;47.408;19.174;2023-03-01T01:10:43;34.72;;;18.20;;
40971;SDS011;26701;47.408;19.174;2023-03-01T01:13:10;28.58;;;17.00;;
40971;SDS011;26701;47.408;19.174;2023-03-01T01:15:36;31.15;;;15.55;;
40971;SDS011;26701;47.408;19.174;2023-03-01T01:18:02;32.70;;;17.95;;
40971;SDS011;26701;47.408;19.174;2023-03-01T01:20:27;36.75;;;17.02;;
40971;SDS011;26701;47.408;19.174;2023-03-01T01:22:54;30.83;;;15.85;;
40971;SDS011;26701;47.408;19.174;2023-03-01T01:25:20;30.92;;;15.88;;
40971;SDS011;26701;47.408;19.174;2023-03-01T01:27:46;31.80;;;15.48;;
40971;SDS011;26701;47.408;19.174;2023-03-01T01:30:12;30.25;;;15.20;;
40971;SDS011;26701;47.408;19.174;2023-03-01T01:32:38;31.15;;;16.52;;
40971;SDS011;26701;47.408;19.174;2023-03-01T01:35:04;31.15;;;16.10;;
40971;SDS011;26701;47.408;19.174;2023-03-01T01:37:30;32.25;;;16.92;;
40971;SDS011;26701;47.408;19.174;2023-03-01T01:39:58;31.75;;;15.98;;
40971;SDS011;26701;47.408;19.174;2023-03-01T01:42:29;36.42;;;16.23;;
40971;SDS011;26701;47.408;19.174;2023-03-01T01:47:51;30.95;;;14.57;;
40971;SDS011;26701;47.408;19.174;2023-03-01T01:50:17;28.30;;;14.20;;
40971;SDS011;26701;47.408;19.174;2023-03-01T01:52:44;28.65;;;13.93;;
40971;SDS011;26701;47.408;19.174;2023-03-01T01:55:20;27.75;;;15.43;;
40971;SDS011;26701;47.408;19.174;2023-03-01T01:57:49;28.92;;;14.32;;
40971;SDS011;26701;47.408;19.174;2023-03-01T02:00:21;27.90;;;13.60;;
40971;SDS011;26701;47.408;19.174;2023-03-01T02:02:49;27.48;;;13.02;;
40971;SDS011;26701;47.408;19.174;2023-03-01T02:08:03;25.98;;;12.23;;
40971;SDS011;26701;47.408;19.174;2023-03-01T02:10:29;26.48;;;14.32;;
40971;SDS011;26701;47.408;19.174;2023-03-01T02:12:58;29.90;;;13.13;;
40971;SDS011;26701;47.408;19.174;2023-03-01T02:15:25;23.92;;;13.13;;
40971;SDS011;26701;47.408;19.174;2023-03-01T02:17:52;27.67;;;14.35;;
40971;SDS011;26701;47.408;19.174;2023-03-01T02:20:54;28.45;;;13.13;;
40971;SDS011;26701;47.408;19.174;2023-03-01T02:23:21;27.27;;;14.25;;
40971;SDS011;26701;47.408;19.174;2023-03-01T02:28:54;25.00;;;13.57;;
40971;SDS011;26701;47.408;19.174;2023-03-01T02:31:21;27.38;;;14.40;;
40971;SDS011;26701;47.408;19.174;2023-03-01T02:34:06;24.75;;;12.35;;
40971;SDS011;26701;47.408;19.174;2023-03-01T02:36:38;29.50;;;13.00;;
40971;SDS011;26701;47.408;19.174;2023-03-01T02:39:12;26.27;;;12.40;;
40971;SDS011;26701;47.408;19.174;2023-03-01T02:41:44;24.15;;;12.43;;
40971;SDS011;26701;47.408;19.174;2023-03-01T02:44:13;22.80;;;12.32;;
40971;SDS011;26701;47.408;19.174;2023-03-01T02:46:57;27.83;;;11.90;;
40971;SDS011;26701;47.408;19.174;2023-03-01T02:49:30;23.75;;;12.10;;
40971;SDS011;26701;47.408;19.174;2023-03-01T02:57:25;23.05;;;11.85;;
40971;SDS011;26701;47.408;19.174;2023-03-01T02:59:54;23.45;;;12.20;;
40971;SDS011;26701;47.408;19.174;2023-03-01T03:02:29;29.45;;;13.15;;
40971;SDS011;26701;47.408;19.174;2023-03-01T03:05:14;23.80;;;11.55;;
40971;SDS011;26701;47.408;19.174;2023-03-01T03:10:20;21.85;;;10.30;;
40971;SDS011;26701;47.408;19.174;2023-03-01T03:12:52;24.52;;;11.32;;
40971;SDS011;26701;47.408;19.174;2023-03-01T03:15:21;22.83;;;12.13;;
40971;SDS011;26701;47.408;19.174;2023-03-01T03:17:47;23.67;;;13.18;;
40971;SDS011;26701;47.408;19.174;2023-03-01T03:20:16;22.27;;;12.85;;
40971;SDS011;26701;47.408;19.174;2023-03-01T03:25:10;22.55;;;10.77;;
40971;SDS011;26701;47.408;19.174;2023-03-01T03:27:37;25.60;;;11.15;;
40971;SDS011;26701;47.408;19.174;2023-03-01T03:30:05;26.42;;;12.73;;
40971;SDS011;26701;47.408;19.174;2023-03-01T03:32:37;25.42;;;12.25;;
40971;SDS011;26701;47.408;19.174;2023-03-01T03:35:05;25.58;;;12.80;;
40971;SDS011;26701;47.408;19.174;2023-03-01T03:40:19;23.98;;;11.60;;
40971;SDS011;26701;47.408;19.174;2023-03-01T03:42:45;23.13;;;11.70;;
40971;SDS011;26701;47.408;19.174;2023-03-01T03:45:11;19.77;;;11.30;;
40971;SDS011;26701;47.408;19.174;2023-03-01T03:47:36;30.23;;;12.30;;
40971;SDS011;26701;47.408;19.174;2023-03-01T03:50:02;24.98;;;11.68;;
40971;SDS011;26701;47.408;19.174;2023-03-01T03:52:29;24.10;;;12.75;;
40971;SDS011;26701;47.408;19.174;2023-03-01T03:54:54;23.02;;;11.75;;
40971;SDS011;26701;47.408;19.174;2023-03-01T03:57:20;23.85;;;11.35;;
40971;SDS011;26701;47.408;19.174;2023-03-01T03:59:46;30.70;;;14.05;;
40971;SDS011;26701;47.408;19.174;2023-03-01T04:02:12;25.98;;;12.48;;
40971;SDS011;26701;47.408;19.174;2023-03-01T04:04:50;24.95;;;11.68;;
40971;SDS011;26701;47.408;19.174;2023-03-01T04:07:16;29.30;;;12.20;;
40971;SDS011;26701;47.408;19.174;2023-03-01T04:09:42;25.20;;;13.55;;
40971;SDS011;26701;47.408;19.174;2023-03-01T04:12:09;26.80;;;13.57;;
40971;SDS011;26701;47.408;19.174;2023-03-01T04:14:35;28.95;;;13.77;;
40971;SDS011;26701;47.408;19.174;2023-03-01T04:17:01;24.88;;;13.65;;
40971;SDS011;26701;47.408;19.174;2023-03-01T04:19:29;24.38;;;12.52;;
40971;SDS011;26701;47.408;19.174;2023-03-01T04:22:01;20.02;;;11.77;;
40971;SDS011;26701;47.408;19.174;2023-03-01T04:24:37;21.75;;;12.00;;
40971;SDS011;26701;47.408;19.174;2023-03-01T04:27:03;28.65;;;11.95;;
40971;SDS011;26701;47.408;19.174;2023-03-01T04:29:29;24.08;;;12.88;;
40971;SDS011;26701;47.408;19.174;2023-03-01T04:31:55;21.52;;;11.25;;
40971;SDS011;26701;47.408;19.174;2023-03-01T04:34:20;26.50;;;13.00;;
40971;SDS011;26701;47.408;19.174;2023-03-01T04:36:46;24.30;;;12.10;;
40971;SDS011;26701;47.408;19.174;2023-03-01T04:39:12;25.92;;;12.02;;
40971;SDS011;26701;47.408;19.174;2023-03-01T04:41:38;21.05;;;10.93;;
40971;SDS011;26701;47.408;19.174;2023-03-01T04:44:06;25.65;;;11.77;;
40971;SDS011;26701;47.408;19.174;2023-03-01T04:46:34;25.50;;;11.68;;
40971;SDS011;26701;47.408;19.174;2023-03-01T04:49:00;23.50;;;10.98;;
40971;SDS011;26701;47.408;19.174;2023-03-01T04:51:27;23.92;;;12.23;;
40971;SDS011;26701;47.408;19.174;2023-03-01T04:53:53;23.77;;;11.70;;
40971;SDS011;26701;47.408;19.174;2023-03-01T04:56:19;20.17;;;10.35;;
40971;SDS011;26701;47.408;19.174;2023-03-01T04:58:48;22.45;;;11.05;;
40971;SDS011;26701;47.408;19.174;2023-03-01T05:01:16;25.38;;;12.57;;
40971;SDS011;26701;47.408;19.174;2023-03-01T05:03:43;29.17;;;12.73;;
40971;SDS011;26701;47.408;19.174;2023-03-01T05:06:10;26.60;;;11.60;;
40971;SDS011;26701;47.408;19.174;2023-03-01T05:08:39;24.02;;;11.07;;
40971;SDS011;26701;47.408;19.174;2023-03-01T05:11:06;26.73;;;11.15;;
40971;SDS011;26701;47.408;19.174;2023-03-01T05:13:34;24.95;;;11.15;;
40971;SDS011;26701;47.408;19.174;2023-03-01T05:16:01;18.05;;;9.95;;
40971;SDS011;26701;47.408;19.174;2023-03-01T05:18:29;19.70;;;11.55;;
40971;SDS011;26701;47.408;19.174;2023-03-01T05:21:05;26.73;;;11.30;;
40971;SDS011;26701;47.408;19.174;2023-03-01T05:23:33;19.45;;;10.20;;
40971;SDS011;26701;47.408;19.174;2023-03-01T05:26:00;27.90;;;12.30;;
40971;SDS011;26701;47.408;19.174;2023-03-01T05:28:27;24.58;;;11.77;;
40971;SDS011;26701;47.408;19.174;2023-03-01T05:30:54;24.08;;;11.02;;
40971;SDS011;26701;47.408;19.174;2023-03-01T05:33:20;20.17;;;11.95;;
40971;SDS011;26701;47.408;19.174;2023-03-01T05:35:47;28.83;;;13.25;;
40971;SDS011;26701;47.408;19.174;2023-03-01T05:38:14;29.58;;;14.85;;
40971;SDS011;26701;47.408;19.174;2023-03-01T05:40:43;30.88;;;15.57;;
40971;SDS011;26701;47.408;19.174;2023-03-01T05:43:11;34.78;;;15.68;;
40971;SDS011;26701;47.408;19.174;2023-03-01T05:45:39;32.13;;;15.27;;
40971;SDS011;26701;47.408;19.174;2023-03-01T05:48:06;29.42;;;14.75;;
40971;SDS011;26701;47.408;19.174;2023-03-01T05:50:33;30.05;;;12.88;;
40971;SDS011;26701;47.408;19.174;2023-03-01T05:53:02;28.05;;;12.38;;
40971;SDS011;26701;47.408;19.174;2023-03-01T05:55:33;20.13;;;10.70;;
40971;SDS011;26701;47.408;19.174;2023-03-01T05:58:04;24.10;;;11.23;;
40971;SDS011;26701;47.408;19.174;2023-03-01T06:00:32;28.92;;;12.43;;
40971;SDS011;26701;47.408;19.174;2023-03-01T06:02:58;24.83;;;11.52;;
40971;SDS011;26701;47.408;19.174;2023-03-01T06:05:25;23.00;;;10.10;;
40971;SDS011;26701;47.408;19.174;2023-03-01T06:07:51;25.02;;;11.35;;
40971;SDS011;26701;47.408;19.174;2023-03-01T06:10:18;21.65;;;10.57;;
40971;SDS011;26701;47.408;19.174;2023-03-01T06:12:45;22.52;;;11.07;;
40971;SDS011;26701;47.408;19.174;2023-03-01T06:15:12;26.83;;;11.75;;
40971;SDS011;26701;47.408;19.174;2023-03-01T06:17:39;20.95;;;11.35;;
40971;SDS011;26701;47.408;19.174;2023-03-01T06:20:08;28.25;;;12.55;;
40971;SDS011;26701;47.408;19.174;2023-03-01T06:22:39;24.92;;;12.55;;
40971;SDS011;26701;47.408;19.174;2023-03-01T06:25:06;25.38;;;11.65;;
40971;SDS011;26701;47.408;19.174;2023-03-01T06:27:32;24.23;;;11.73;;
40971;SDS011;26701;47.408;19.174;2023-03-01T06:29:58;25.50;;;11.80;;
40971;SDS011;26701;47.408;19.174;2023-03-01T06:32:24;22.90;;;11.35;;
40971;SDS011;26701;47.408;19.174;2023-03-01T06:34:50;25.35;;;11.13;;
40971;SDS011;26701;47.408;19.174;2023-03-01T06:37:16;23.35;;;12.25;;
40971;SDS011;26701;47.408;19.174;2023-03-01T06:39:42;27.52;;;11.45;;
40971;SDS011;26701;47.408;19.174;2023-03-01T06:42:08;24.95;;;11.52;;
40971;SDS011;26701;47.408;19.174;2023-03-01T06:44:37;24.60;;;12.75;;
40971;SDS011;26701;47.408;19.174;2023-03-01T06:47:03;23.35;;;10.57;;
40971;SDS011;26701;47.408;19.174;2023-03-01T06:49:30;23.15;;;12.00;;
40971;SDS011;26701;47.408;19.174;2023-03-01T06:51:56;24.90;;;12.80;;
40971;SDS011;26701;47.408;19.174;2023-03-01T06:54:22;27.88;;;12.88;;
40971;SDS011;26701;47.408;19.174;2023-03-01T06:56:49;24.88;;;11.40;;
40971;SDS011;26701;47.408;19.174;2023-03-01T06:59:15;25.92;;;11.27;;
40971;SDS011;26701;47.408;19.174;2023-03-01T07:01:42;22.92;;;11.50;;
40971;SDS011;26701;47.408;19.174;2023-03-01T07:04:08;25.95;;;11.65;;
40971;SDS011;26701;47.408;19.174;2023-03-01T07:06:34;20.48;;;10.75;;
40971;SDS011;26701;47.408;19.174;2023-03-01T07:09:00;24.92;;;12.18;;
40971;SDS011;26701;47.408;19.174;2023-03-01T07:11:26;24.88;;;11.73;;
40971;SDS011;26701;47.408;19.174;2023-03-01T07:13:53;20.83;;;11.73;;
40971;SDS011;26701;47.408;19.174;2023-03-01T07:16:19;19.80;;;11.50;;
40971;SDS011;26701;47.408;19.174;2023-03-01T07:18:45;24.55;;;10.75;;
40971;SDS011;26701;47.408;19.174;2023-03-01T07:21:12;20.08;;;11.43;;
40971;SDS011;26701;47.408;19.174;2023-03-01T07:23:39;18.65;;;10.02;;
40971;SDS011;26701;47.408;19.174;2023-03-01T07:26:05;22.20;;;11.98;;
40971;SDS011;26701;47.408;19.174;2023-03-01T07:28:32;20.80;;;10.88;;
40971;SDS011;26701;47.408;19.174;2023-03-01T07:31:03;21.77;;;10.13;;
40971;SDS011;26701;47.408;19.174;2023-03-01T07:33:29;19.40;;;10.07;;
40971;SDS011;26701;47.408;19.174;2023-03-01T07:35:59;20.92;;;9.80;;
40971;SDS011;26701;47.408;19.174;2023-03-01T07:38:27;21.67;;;10.70;;
40971;SDS011;26701;47.408;19.174;2023-03-01T07:40:54;23.77;;;11.60;;
40971;SDS011;26701;47.408;19.174;2023-03-01T07:43:26;22.80;;;10.18;;
40971;SDS011;26701;47.408;19.174;2023-03-01T07:45:53;18.92;;;9.98;;
40971;SDS011;26701;47.408;19.174;2023-03-01T07:48:19;21.90;;;10.35;;
40971;SDS011;26701;47.408;19.174;2023-03-01T07:50:45;20.77;;;11.27;;
40971;SDS011;26701;47.408;19.174;2023-03-01T07:53:10;20.15;;;10.40;;
40971;SDS011;26701;47.408;19.174;2023-03-01T07:55:37;20.08;;;11.18;;
40971;SDS011;26701;47.408;19.174;2023-03-01T07:58:02;21.08;;;10.68;;
40971;SDS011;26701;47.408;19.174;2023-03-01T08:00:29;19.38;;;10.00;;
40971;SDS011;26701;47.408;19.174;2023-03-01T08:02:58;16.38;;;8.88;;
40971;SDS011;26701;47.408;19.174;2023-03-01T08:05:24;19.40;;;10.82;;
40971;SDS011;26701;47.408;19.174;2023-03-01T08:07:50;20.45;;;9.27;;
40971;SDS011;26701;47.408;19.174;2023-03-01T08:10:16;18.85;;;9.85;;
40971;SDS011;26701;47.408;19.174;2023-03-01T08:12:42;18.50;;;9.90;;
40971;SDS011;26701;47.408;19.174;2023-03-01T08:15:08;17.80;;;9.88;;
40971;SDS011;26701;47.408;19.174;2023-03-01T08:17:34;17.42;;;9.70;;
40971;SDS011;26701;47.408;19.174;2023-03-01T08:20:00;18.95;;;10.38;;
40971;SDS011;26701;47.408;19.174;2023-03-01T08:22:27;19.50;;;9.55;;
40971;SDS011;26701;47.408;19.174;2023-03-01T08:24:53;19.33;;;10.52;;
40971;SDS011;26701;47.408;19.174;2023-03-01T08:27:20;21.17;;;9.90;;
40971;SDS011;26701;47.408;19.174;2023-03-01T08:29:46;20.95;;;10.40;;
40971;SDS011;26701;47.408;19.174;2023-03-01T08:32:12;19.75;;;9.40;;
40971;SDS011;26701;47.408;19.174;2023-03-01T08:34:38;19.45;;;9.52;;
40971;SDS011;26701;47.408;19.174;2023-03-01T08:37:04;22.98;;;12.95;;
40971;SDS011;26701;47.408;19.174;2023-03-01T08:39:30;94.32;;;37.50;;
40971;SDS011;26701;47.408;19.174;2023-03-01T08:41:56;116.80;;;40.30;;
40971;SDS011;26701;47.408;19.174;2023-03-01T08:44:22;51.75;;;20.83;;
40971;SDS011;26701;47.408;19.174;2023-03-01T08:46:49;22.08;;;10.68;;
40971;SDS011;26701;47.408;19.174;2023-03-01T08:49:17;40.22;;;19.23;;
40971;SDS011;26701;47.408;19.174;2023-03-01T08:51:44;344.75;;;110.78;;
40971;SDS011;26701;47.408;19.174;2023-03-01T08:54:14;49.22;;;23.33;;
40971;SDS011;26701;47.408;19.174;2023-03-01T08:56:43;18.67;;;11.13;;
40971;SDS011;26701;47.408;19.174;2023-03-01T08:59:10;14.13;;;8.68;;
40971;SDS011;26701;47.408;19.174;2023-03-01T09:01:36;22.73;;;11.02;;
40971;SDS011;26701;47.408;19.174;2023-03-01T09:04:02;19.95;;;9.43;;
40971;SDS011;26701;47.408;19.174;2023-03-01T09:06:32;16.70;;;7.68;;
40971;SDS011;26701;47.408;19.174;2023-03-01T09:08:59;15.63;;;8.63;;
40971;SDS011;26701;47.408;19.174;2023-03-01T09:11:25;14.40;;;8.77;;
40971;SDS011;26701;47.408;19.174;2023-03-01T09:13:51;15.18;;;9.13;;
40971;SDS011;26701;47.408;19.174;2023-03-01T09:16:18;15.82;;;8.52;;
40971;SDS011;26701;47.408;19.174;2023-03-01T09:18:48;20.33;;;11.02;;
40971;SDS011;26701;47.408;19.174;2023-03-01T09:21:16;179.80;;;58.15;;
40971;SDS011;26701;47.408;19.174;2023-03-01T09:23:43;101.88;;;44.45;;
40971;SDS011;26701;47.408;19.174;2023-03-01T09:26:11;31.48;;;17.10;;
40971;SDS011;26701;47.408;19.174;2023-03-01T09:28:41;15.10;;;9.70;;
40971;SDS011;26701;47.408;19.174;2023-03-01T09:31:07;14.50;;;7.97;;
40971;SDS011;26701;47.408;19.174;2023-03-01T09:33:33;17.95;;;8.85;;
40971;SDS011;26701;47.408;19.174;2023-03-01T09:36:00;15.90;;;9.07;;
40971;SDS011;26701;47.408;19.174;2023-03-01T09:38:28;14.63;;;8.40;;
40971;SDS011;26701;47.408;19.174;2023-03-01T09:40:54;19.95;;;9.75;;
40971;SDS011;26701;47.408;19.174;2023-03-01T09:46:40;15.85;;;9.63;;
40971;SDS011;26701;47.408;19.174;2023-03-01T09:49:12;22.23;;;10.30;;
40971;SDS011;26701;47.408;19.174;2023-03-01T09:51:42;16.58;;;9.68;;
40971;SDS011;26701;47.408;19.174;2023-03-01T09:54:12;14.93;;;8.88;;
40971;SDS011;26701;47.408;19.174;2023-03-01T09:56:40;19.10;;;10.95;;
40971;SDS011;26701;47.408;19.174;2023-03-01T10:09:37;16.02;;;9.00;;
40971;SDS011;26701;47.408;19.174;2023-03-01T10:12:08;16.30;;;9.60;;
40971;SDS011;26701;47.408;19.174;2023-03-01T10:14:38;19.23;;;10.10;;
40971;SDS011;26701;47.408;19.174;2023-03-01T10:19:46;14.45;;;8.07;;
40971;SDS011;26701;47.408;19.174;2023-03-01T10:22:16;15.35;;;8.75;;
40971;SDS011;26701;47.408;19.174;2023-03-01T10:24:46;15.18;;;8.32;;
40971;SDS011;26701;47.408;19.174;2023-03-01T10:29:46;16.52;;;9.82;;
40971;SDS011;26701;47.408;19.174;2023-03-01T10:32:21;15.50;;;8.45;;
40971;SDS011;26701;47.408;19.174;2023-03-01T10:34:47;15.50;;;8.88;;
40971;SDS011;26701;47.408;19.174;2023-03-01T10:37:14;14.63;;;7.88;;
40971;SDS011;26701;47.408;19.174;2023-03-01T10:40:08;12.43;;;7.45;;
40971;SDS011;26701;47.408;19.174;2023-03-01T10:42:52;12.48;;;8.05;;
40971;SDS011;26701;47.408;19.174;2023-03-01T10:45:32;13.38;;;7.50;;
40971;SDS011;26701;47.408;19.174;2023-03-01T10:48:03;18.55;;;9.00;;
40971;SDS011;26701;47.408;19.174;2023-03-01T10:50:35;13.45;;;7.68;;
40971;SDS011;26701;47.408;19.174;2023-03-01T10:53:03;12.85;;;7.97;;
40971;SDS011;26701;47.408;19.174;2023-03-01T11:03:23;17.83;;;9.50;;
40971;SDS011;26701;47.408;19.174;2023-03-01T11:08:44;12.07;;;6.97;;
40971;SDS011;26701;47.408;19.174;2023-03-01T11:13:47;11.30;;;7.13;;
40971;SDS011;26701;47.408;19.174;2023-03-01T11:16:15;12.15;;;7.78;;
40971;SDS011;26701;47.408;19.174;2023-03-01T11:18:56;14.82;;;6.97;;
40971;SDS011;26701;47.408;19.174;2023-03-01T11:21:24;14.93;;;7.63;;
40971;SDS011;26701;47.408;19.174;2023-03-01T11:23:53;10.68;;;7.43;;
40971;SDS011;26701;47.408;19.174;2023-03-01T11:26:19;21.17;;;9.38;;
40971;SDS011;26701;47.408;19.174;2023-03-01T11:28:46;13.85;;;9.10;;
40971;SDS011;26701;47.408;19.174;2023-03-01T11:31:17;17.88;;;9.88;;
40971;SDS011;26701;47.408;19.174;2023-03-01T11:36:44;13.38;;;7.30;;
40971;SDS011;26701;47.408;19.174;2023-03-01T11:42:20;10.45;;;6.30;;
40971;SDS011;26701;47.408;19.174;2023-03-01T11:44:47;8.70;;;5.90;;
40971;SDS011;26701;47.408;19.174;2023-03-01T11:48:04;10.68;;;6.53;;
40971;SDS011;26701;47.408;19.174;2023-03-01T11:55:51;11.95;;;5.90;;
40971;SDS011;26701;47.408;19.174;2023-03-01T12:10:27;10.38;;;5.70;;
40971;SDS011;26701;47.408;19.174;2023-03-01T12:13:06;11.13;;;6.20;;
40971;SDS011;26701;47.408;19.174;2023-03-01T12:20:58;9.35;;;5.55;;
40971;SDS011;26701;47.408;19.174;2023-03-01T12:26:51;10.20;;;4.90;;
40971;SDS011;26701;47.408;19.174;2023-03-01T12:29:38;7.37;;;4.60;;
40971;SDS011;26701;47.408;19.174;2023-03-01T12:39:38;9.52;;;5.15;;
40971;SDS011;26701;47.408;19.174;2023-03-01T12:51:01;10.07;;;4.82;;
40971;SDS011;26701;47.408;19.174;2023-03-01T12:53:32;8.00;;;4.88;;
40971;SDS011;26701;47.408;19.174;2023-03-01T12:56:05;7.03;;;4.28;;
40971;SDS011;26701;47.408;19.174;2023-03-01T13:17:48;9.95;;;4.85;;
40971;SDS011;26701;47.408;19.174;2023-03-01T13:20:20;8.93;;;4.78;;
40971;SDS011;26701;47.408;19.174;2023-03-01T13:22:48;9.07;;;4.00;;
40971;SDS011;26701;47.408;19.174;2023-03-01T13:25:26;18.05;;;6.47;;
40971;SDS011;26701;47.408;19.174;2023-03-01T13:27:53;20.33;;;8.80;;
40971;SDS011;26701;47.408;19.174;2023-03-01T13:30:56;33.78;;;11.90;;
40971;SDS011;26701;47.408;19.174;2023-03-01T13:35:49;23.33;;;10.38;;
40971;SDS011;26701;47.408;19.174;2023-03-01T13:41:14;12.18;;;5.38;;
40971;SDS011;26701;47.408;19.174;2023-03-01T13:43:42;13.38;;;6.22;;
40971;SDS011;26701;47.408;19.174;2023-03-01T13:46:16;7.03;;;5.00;;
40971;SDS011;26701;47.408;19.174;2023-03-01T13:48:45;9.10;;;4.57;;
40971;SDS011;26701;47.408;19.174;2023-03-01T13:51:16;8.95;;;4.53;;
40971;SDS011;26701;47.408;19.174;2023-03-01T13:53:50;8.52;;;4.68;;
40971;SDS011;26701;47.408;19.174;2023-03-01T13:56:33;7.38;;;3.63;;
40971;SDS011;26701;47.408;19.174;2023-03-01T13:59:04;9.05;;;5.45;;
40971;SDS011;26701;47.408;19.174;2023-03-01T14:01:33;10.00;;;4.65;;
40971;SDS011;26701;47.408;19.174;2023-03-01T14:04:01;9.40;;;4.78;;
40971;SDS011;26701;47.408;19.174;2023-03-01T14:06:29;8.73;;;4.68;;
40971;SDS011;26701;47.408;19.174;2023-03-01T14:19:56;7.13;;;3.92;;
40971;SDS011;26701;47.408;19.174;2023-03-01T14:22:24;7.78;;;3.42;;
40971;SDS011;26701;47.408;19.174;2023-03-01T14:27:25;8.95;;;4.05;;
40971;SDS011;26701;47.408;19.174;2023-03-01T14:30:26;6.53;;;3.45;;
40971;SDS011;26701;47.408;19.174;2023-03-01T14:32:56;5.65;;;3.30;;
40971;SDS011;26701;47.408;19.174;2023-03-01T14:35:28;5.53;;;3.22;;
40971;SDS011;26701;47.408;19.174;2023-03-01T14:37:56;5.38;;;4.18;;
40971;SDS011;26701;47.408;19.174;2023-03-01T14:40:27;6.32;;;4.65;;
40971;SDS011;26701;47.408;19.174;2023-03-01T14:42:58;9.10;;;5.20;;
40971;SDS011;26701;47.408;19.174;2023-03-01T14:47:54;7.10;;;4.20;;
40971;SDS011;26701;47.408;19.174;2023-03-01T14:50:28;5.88;;;4.05;;
40971;SDS011;26701;47.408;19.174;2023-03-01T14:53:02;4.25;;;3.20;;
40971;SDS011;26701;47.408;19.174;2023-03-01T14:57:56;6.85;;;4.50;;
40971;SDS011;26701;47.408;19.174;2023-03-01T15:00:26;8.13;;;3.80;;
40971;SDS011;26701;47.408;19.174;2023-03-01T15:02:55;5.28;;;3.60;;
40971;SDS011;26701;47.408;19.174;2023-03-01T15:05:32;5.22;;;3.30;;
40971;SDS011;26701;47.408;19.174;2023-03-01T15:07:58;6.55;;;3.95;;
40971;SDS011;26701;47.408;19.174;2023-03-01T15:10:27;7.05;;;3.95;;
40971;SDS011;26701;47.408;19.174;2023-03-01T15:12:56;10.23;;;3.95;;
40971;SDS011;26701;47.408;19.174;2023-03-01T15:15:35;5.85;;;3.67;;
40971;SDS011;26701;47.408;19.174;2023-03-01T15:18:05;6.07;;;3.90;;
40971;SDS011;26701;47.408;19.174;2023-03-01T15:20:46;10.55;;;3.65;;
40971;SDS011;26701;47.408;19.174;2023-03-01T15:23:34;7.43;;;4.65;;
40971;SDS011;26701;47.408;19.174;2023-03-01T15:26:00;5.15;;;3.75;;
40971;SDS011;26701;47.408;19.174;2023-03-01T15:28:27;8.68;;;3.92;;
40971;SDS011;26701;47.408;19.174;2023-03-01T15:31:01;8.90;;;3.05;;
40971;SDS011;26701;47.408;19.174;2023-03-01T15:33:37;7.35;;;2.67;;
40971;SDS011;26701;47.408;19.174;2023-03-01T15:36:29;5.70;;;3.35;;
40971;SDS011;26701;47.408;19.174;2023-03-01T15:38:58;7.93;;;3.33;;
40971;SDS011;26701;47.408;19.174;2023-03-01T15:43:56;5.30;;;3.03;;
40971;SDS011;26701;47.408;19.174;2023-03-01T15:46:27;4.97;;;2.92;;
40971;SDS011;26701;47.408;19.174;2023-03-01T15:49:20;8.05;;;4.22;;
40971;SDS011;26701;47.408;19.174;2023-03-01T15:51:55;6.18;;;3.30;;
40971;SDS011;26701;47.408;19.174;2023-03-01T15:54:23;5.25;;;3.22;;
40971;SDS011;26701;47.408;19.174;2023-03-01T15:59:16;7.50;;;3.75;;
40971;SDS011;26701;47.408;19.174;2023-03-01T16:01:43;10.02;;;4.40;;
40971;SDS011;26701;47.408;19.174;2023-03-01T16:04:13;9.10;;;4.00;;
40971;SDS011;26701;47.408;19.174;2023-03-01T16:06:54;7.88;;;4.55;;
40971;SDS011;26701;47.408;19.174;2023-03-01T16:09:23;8.73;;;4.72;;
40971;SDS011;26701;47.408;19.174;2023-03-01T16:11:50;9.00;;;4.53;;
40971;SDS011;26701;47.408;19.174;2023-03-01T16:14:16;10.50;;;5.32;;
40971;SDS011;26701;47.408;19.174;2023-03-01T16:16:43;8.90;;;5.43;;
40971;SDS011;26701;47.408;19.174;2023-03-01T16:19:09;11.25;;;5.57;;
40971;SDS011;26701;47.408;19.174;2023-03-01T16:21:35;11.77;;;6.00;;
40971;SDS011;26701;47.408;19.174;2023-03-01T16:24:02;11.35;;;6.43;;
40971;SDS011;26701;47.408;19.174;2023-03-01T16:26:28;13.77;;;6.50;;
40971;SDS011;26701;47.408;19.174;2023-03-01T16:28:54;12.98;;;7.90;;
40971;SDS011;26701;47.408;19.174;2023-03-01T16:31:21;19.17;;;7.35;;
40971;SDS011;26701;47.408;19.174;2023-03-01T16:33:47;14.07;;;7.40;;
40971;SDS011;26701;47.408;19.174;2023-03-01T16:36:15;650.85;;;246.38;;
40971;SDS011;26701;47.408;19.174;2023-03-01T16:38:43;528.92;;;206.40;;
40971;SDS011;26701;47.408;19.174;2023-03-01T16:41:12;227.43;;;90.78;;
40971;SDS011;26701;47.408;19.174;2023-03-01T16:43:40;113.80;;;48.45;;
40971;SDS011;26701;47.408;19.174;2023-03-01T16:46:10;94.40;;;44.22;;
40971;SDS011;26701;47.408;19.174;2023-03-01T16:48:43;74.22;;;37.00;;
40971;SDS011;26701;47.408;19.174;2023-03-01T16:51:10;44.60;;;25.13;;
40971;SDS011;26701;47.408;19.174;2023-03-01T16:53:36;42.33;;;21.38;;
40971;SDS011;26701;47.408;19.174;2023-03-01T16:56:03;36.33;;;18.25;;
40971;SDS011;26701;47.408;19.174;2023-03-01T16:58:31;50.83;;;26.67;;